createdAt,value
2022-11-05T00:08:39.107Z,9.19
2022-11-05T00:13:48.047Z,9.19
2022-11-05T00:18:56.827Z,9.25
2022-11-05T00:24:05.922Z,9.31
2022-11-05T00:29:14.746Z,9.25
2022-11-05T00:34:23.720Z,9.25
2022-11-05T00:39:32.817Z,9.31
2022-11-05T00:44:41.807Z,9.38
2022-11-05T00:49:50.728Z,9.5
2022-11-05T00:54:59.785Z,9.5
2022-11-05T01:00:08.949Z,9.56
2022-11-05T01:05:17.856Z,9.5
2022-11-05T01:10:26.918Z,9.44
2022-11-05T01:15:35.835Z,9.38
2022-11-05T01:20:44.668Z,9.25
2022-11-05T01:25:53.596Z,9.25
2022-11-05T01:31:02.770Z,9.19
2022-11-05T01:36:11.727Z,9.19
2022-11-05T01:41:20.753Z,9.13
2022-11-05T01:46:29.952Z,9.06
2022-11-05T01:51:38.871Z,9.06
2022-11-05T01:56:47.841Z,9
2022-11-05T02:06:54.911Z,9
2022-11-05T02:12:03.976Z,8.94
2022-11-05T02:22:21.845Z,8.88
2022-11-05T02:27:30.873Z,8.81
2022-11-05T02:32:39.945Z,8.75
2022-11-05T02:37:52.111Z,8.69
2022-11-05T02:43:01.238Z,8.69
2022-11-05T02:53:19.187Z,8.81
2022-11-05T02:58:28.337Z,8.88
2022-11-05T03:03:37.331Z,8.88
2022-11-05T03:08:46.478Z,8.81
2022-11-05T03:13:55.427Z,8.81
2022-11-05T03:19:04.338Z,8.81
2022-11-05T03:24:13.089Z,8.63
2022-11-05T03:29:22.132Z,8.69
2022-11-05T03:34:30.941Z,8.75
2022-11-05T03:39:39.985Z,8.81
2022-11-05T03:44:49.038Z,8.81
2022-11-05T03:49:57.988Z,8.81
2022-11-05T03:55:07.166Z,8.81
2022-11-05T04:00:16.088Z,8.81
2022-11-05T04:10:33.986Z,8.75
2022-11-05T04:15:43.073Z,8.75
2022-11-05T04:20:51.917Z,8.75
2022-11-05T04:26:01.025Z,8.75
2022-11-05T04:31:10.106Z,8.75
2022-11-05T04:41:28.009Z,8.69
2022-11-05T04:46:37.036Z,8.69
2022-11-05T04:51:46.012Z,8.63
2022-11-05T04:56:54.916Z,8.63
2022-11-05T05:02:04.048Z,8.56
2022-11-05T05:07:12.973Z,8.56
2022-11-05T05:12:21.901Z,8.56
2022-11-05T05:17:30.820Z,8.5
2022-11-05T05:22:39.832Z,8.5
2022-11-05T05:27:48.870Z,8.44
2022-11-05T05:32:57.995Z,8.44
2022-11-05T05:38:06.764Z,8.38
2022-11-05T05:43:15.699Z,8.25
2022-11-05T05:48:24.669Z,8.25
2022-11-05T05:53:33.746Z,8.25
2022-11-05T05:58:42.493Z,8.25
2022-11-05T06:03:51.528Z,8.19
2022-11-05T06:09:00.713Z,8.19
2022-11-05T06:14:09.657Z,8.19
2022-11-05T06:24:27.807Z,8.19
2022-11-05T06:29:36.810Z,8.13
2022-11-05T06:34:45.836Z,8.13
2022-11-05T06:39:55.030Z,8.13
2022-11-05T06:45:03.994Z,8.13
2022-11-05T06:50:12.875Z,8.13
2022-11-05T06:55:21.902Z,8.19
2022-11-05T07:00:31.073Z,8.19
2022-11-05T07:05:39.893Z,8.19
2022-11-05T07:15:57.949Z,8.25
2022-11-05T07:21:07.093Z,8.31
2022-11-05T07:26:16.188Z,8.44
2022-11-05T07:36:23.417Z,8.56
2022-11-05T07:41:32.255Z,8.63
2022-11-05T07:46:41.107Z,8.63
2022-11-05T07:51:50.233Z,8.75
2022-11-05T07:56:59.309Z,8.81
2022-11-05T08:07:06.930Z,9.06
2022-11-05T08:12:15.999Z,9.19
2022-11-05T08:17:24.966Z,9.31
2022-11-05T08:22:34.015Z,9.38
2022-11-05T08:27:42.817Z,9.31
2022-11-05T08:32:51.864Z,9.31
2022-11-05T08:38:01.039Z,9.44
2022-11-05T08:43:10.359Z,9.69
2022-11-05T08:48:19.356Z,9.75
2022-11-05T08:53:28.327Z,9.75
2022-11-05T08:58:37.271Z,9.75
2022-11-05T09:03:46.380Z,9.5
2022-11-05T09:08:55.367Z,9.63
2022-11-05T09:14:04.274Z,9.56
2022-11-05T09:19:13.341Z,9.75
2022-11-05T09:24:22.536Z,10.13
2022-11-05T09:29:31.833Z,10.56
2022-11-05T09:34:40.921Z,10.44
2022-11-05T09:39:52.697Z,10.19
2022-11-05T09:45:01.361Z,10
2022-11-05T09:50:10.368Z,9.88
2022-11-05T09:55:19.543Z,9.94
2022-11-05T10:00:28.800Z,10.25
2022-11-05T10:05:38.004Z,10.63
2022-11-05T10:10:47.163Z,10.75
2022-11-05T10:15:56.337Z,10.75
2022-11-05T10:21:05.323Z,10.69
2022-11-05T10:26:14.240Z,10.88
2022-11-05T10:31:23.689Z,11.81
2022-11-05T10:36:33.073Z,12.5
2022-11-05T10:41:42.741Z,13.56
2022-11-05T10:46:51.840Z,13.19
2022-11-05T10:52:00.345Z,12.31
2022-11-05T10:57:09.557Z,13.5
2022-11-05T11:02:19.140Z,13.62
2022-11-05T11:07:27.397Z,11.81
2022-11-05T11:12:40.646Z,11.25
2022-11-05T11:17:45.313Z,12.25
2022-11-05T11:22:54.451Z,12.5
2022-11-05T11:33:13.331Z,12.94
2022-11-05T11:38:21.722Z,13.69
2022-11-05T11:43:30.972Z,13.19
2022-11-05T11:48:40.127Z,13.13
2022-11-05T11:53:49.379Z,13.5
2022-11-05T11:58:58.306Z,13.38
2022-11-05T12:04:07.214Z,13.13
2022-11-05T12:09:15.898Z,12.69
2022-11-05T12:14:24.903Z,13
2022-11-05T12:19:34.293Z,13
2022-11-05T12:24:42.282Z,12.31
2022-11-05T12:29:51.444Z,12.19
2022-11-05T12:35:00.043Z,11.75
2022-11-05T12:40:11.945Z,11.56
2022-11-05T12:45:21.059Z,11.63
2022-11-05T12:50:30.036Z,11.63
2022-11-05T12:55:41.767Z,11.88
2022-11-05T13:00:51.313Z,11.94
2022-11-05T13:06:04.624Z,11.75
2022-11-05T13:11:09.004Z,11.69
2022-11-05T13:16:17.867Z,11.63
2022-11-05T13:21:26.978Z,11.63
2022-11-05T13:26:36.088Z,11.94
2022-11-05T13:31:45.350Z,12.13
2022-11-05T13:36:54.389Z,12
2022-11-05T13:42:03.436Z,11.88
2022-11-05T13:47:12.280Z,11.75
2022-11-05T13:52:20.962Z,10.81
2022-11-05T13:57:29.676Z,10.31
2022-11-05T14:02:38.662Z,10.13
2022-11-05T14:07:50.349Z,10.06
2022-11-05T14:12:59.044Z,10.06
2022-11-05T14:18:08.018Z,10.13
2022-11-05T14:23:16.947Z,10.13
2022-11-05T14:28:25.905Z,10.13
2022-11-05T14:33:34.960Z,10.31
2022-11-05T14:38:44.385Z,11
2022-11-05T14:43:53.742Z,11.38
2022-11-05T14:49:08.238Z,11.31
2022-11-05T14:54:11.792Z,11.12
2022-11-05T14:59:20.667Z,10.94
2022-11-05T15:09:38.622Z,10.81
2022-11-05T15:14:47.410Z,10.69
2022-11-05T15:19:56.367Z,10.5
2022-11-05T15:25:05.355Z,10.38
2022-11-05T15:30:14.208Z,10.19
2022-11-05T15:35:23.155Z,9.94
2022-11-05T15:40:32.171Z,9.75
2022-11-05T15:45:41.140Z,9.69
2022-11-05T15:50:49.769Z,9.38
2022-11-05T15:55:58.769Z,9.06
2022-11-05T16:01:07.688Z,8.75
2022-11-05T16:06:16.710Z,8.69
2022-11-05T16:11:25.882Z,8.63
2022-11-05T16:16:34.748Z,8.63
2022-11-05T16:21:43.682Z,8.25
2022-11-05T16:27:08.155Z,8.06
2022-11-05T16:32:01.719Z,8.06
2022-11-05T16:37:10.688Z,7.75
2022-11-05T16:42:19.670Z,7.56
2022-11-05T16:47:28.591Z,7.44
2022-11-05T16:52:37.710Z,7.25
2022-11-05T17:02:45.051Z,7.06
2022-11-05T17:07:53.914Z,6.87
2022-11-05T17:13:03.126Z,6.75
2022-11-05T17:18:17.047Z,6.56
2022-11-05T17:23:21.119Z,6.31
2022-11-05T17:28:30.009Z,6.25
2022-11-05T17:33:39.094Z,6.19
2022-11-05T17:38:47.944Z,6.06
2022-11-05T17:43:56.919Z,5.94
2022-11-05T17:49:05.815Z,5.81
2022-11-05T17:54:14.893Z,5.62
2022-11-05T17:59:23.845Z,5.5
2022-11-05T18:04:32.876Z,5.37
2022-11-05T18:09:41.859Z,5.31
2022-11-05T18:14:50.746Z,5.31
2022-11-05T18:25:08.607Z,5.25
2022-11-05T18:30:17.517Z,5.31
2022-11-05T18:35:26.473Z,5.37
2022-11-05T18:40:35.579Z,5.44
2022-11-05T18:45:44.879Z,5.5
2022-11-05T18:50:57.738Z,5.56
2022-11-05T18:56:02.928Z,5.56
2022-11-05T19:01:11.948Z,5.5
2022-11-05T19:06:20.816Z,5.37
2022-11-05T19:11:29.819Z,5.31
2022-11-05T19:16:38.790Z,5.25
2022-11-05T19:21:47.854Z,5.25
2022-11-05T19:26:56.766Z,5.56
2022-11-05T19:32:05.816Z,5.62
2022-11-05T19:37:17.812Z,5.69
2022-11-05T19:42:26.863Z,5.62
2022-11-05T19:47:35.857Z,5.56
2022-11-05T19:52:44.836Z,5.5
2022-11-05T19:57:53.808Z,5.31
2022-11-05T20:03:02.696Z,5.25
2022-11-05T20:08:11.695Z,5.19
2022-11-05T20:13:20.534Z,5.12
2022-11-05T20:18:29.486Z,5.12
2022-11-05T20:38:32.561Z,4.87
2022-11-05T20:43:44.652Z,4.87
2022-11-05T20:48:53.905Z,4.94
2022-11-05T20:54:02.876Z,4.87
2022-11-05T20:59:11.754Z,4.87
2022-11-05T21:04:20.759Z,4.81
2022-11-05T21:09:29.777Z,4.81
2022-11-05T21:14:38.610Z,4.81
2022-11-05T21:19:47.617Z,4.81
2022-11-05T21:24:56.952Z,4.81
2022-11-05T21:30:05.722Z,4.81
2022-11-05T21:35:14.905Z,4.69
2022-11-05T21:40:23.870Z,4.69
2022-11-05T21:45:32.736Z,4.69
2022-11-05T22:00:38.982Z,4.62
2022-11-05T22:05:48.188Z,4.62
2022-11-05T22:10:57.300Z,4.69
2022-11-05T22:16:06.374Z,4.81
2022-11-05T22:21:15.429Z,4.87
2022-11-05T22:26:24.420Z,4.87
2022-11-05T22:31:36.362Z,4.87
2022-11-05T22:36:42.435Z,4.87
2022-11-05T22:41:51.510Z,4.94
2022-11-05T22:47:00.512Z,5
2022-11-05T22:52:09.480Z,5.06
2022-11-05T22:57:18.467Z,5
2022-11-05T23:02:27.679Z,4.94
2022-11-05T23:07:36.530Z,4.81
2022-11-05T23:12:45.497Z,5.06
2022-11-05T23:23:03.527Z,4.87
2022-11-05T23:33:21.326Z,4.75
2022-11-05T23:38:30.411Z,4.56
2022-11-05T23:43:39.051Z,4.44
2022-11-05T23:53:46.191Z,4.31
2022-11-05T23:58:55.137Z,4.19
